sensor_id;sensor_type;location;lat;lon;timestamp;temperature;humidity
37460;DHT22;23318;50.966;5.284;2022-08-25T00:02:14;23.30;99.90
37460;DHT22;23318;50.966;5.284;2022-08-25T00:04:40;23.00;99.90
37460;DHT22;23318;50.966;5.284;2022-08-25T00:07:06;23.00;99.90
37460;DHT22;23318;50.966;5.284;2022-08-25T00:09:33;23.10;99.90
37460;DHT22;23318;50.966;5.284;2022-08-25T00:11:59;23.10;99.90
37460;DHT22;23318;50.966;5.284;2022-08-25T00:14:32;23.00;99.90
37460;DHT22;23318;50.966;5.284;2022-08-25T00:16:58;22.90;99.90
37460;DHT22;23318;50.966;5.284;2022-08-25T00:19:28;22.90;99.90
37460;DHT22;23318;50.966;5.284;2022-08-25T00:21:56;22.70;99.90
37460;DHT22;23318;50.966;5.284;2022-08-25T00:24:22;22.70;99.90
37460;DHT22;23318;50.966;5.284;2022-08-25T00:26:51;22.60;99.90
37460;DHT22;23318;50.966;5.284;2022-08-25T00:29:19;22.50;99.90
37460;DHT22;23318;50.966;5.284;2022-08-25T00:31:46;22.40;99.90
37460;DHT22;23318;50.966;5.284;2022-08-25T00:34:18;22.40;99.90
37460;DHT22;23318;50.966;5.284;2022-08-25T00:36:45;22.30;99.90
37460;DHT22;23318;50.966;5.284;2022-08-25T00:39:11;22.20;99.90
37460;DHT22;23318;50.966;5.284;2022-08-25T00:41:39;22.20;99.90
37460;DHT22;23318;50.966;5.284;2022-08-25T00:44:07;22.20;99.90
37460;DHT22;23318;50.966;5.284;2022-08-25T00:46:42;22.10;99.90
37460;DHT22;23318;50.966;5.284;2022-08-25T00:49:13;22.00;99.90
37460;DHT22;23318;50.966;5.284;2022-08-25T00:51:53;21.90;99.90
37460;DHT22;23318;50.966;5.284;2022-08-25T00:54:24;21.80;99.90
37460;DHT22;23318;50.966;5.284;2022-08-25T00:56:52;21.60;99.90
37460;DHT22;23318;50.966;5.284;2022-08-25T00:59:20;21.50;99.90
37460;DHT22;23318;50.966;5.284;2022-08-25T01:01:48;21.40;99.90
37460;DHT22;23318;50.966;5.284;2022-08-25T01:04:14;21.30;99.90
37460;DHT22;23318;50.966;5.284;2022-08-25T01:06:41;21.30;99.90
37460;DHT22;23318;50.966;5.284;2022-08-25T01:09:11;21.30;99.90
37460;DHT22;23318;50.966;5.284;2022-08-25T01:11:40;21.30;99.90
37460;DHT22;23318;50.966;5.284;2022-08-25T01:14:06;21.30;99.90
37460;DHT22;23318;50.966;5.284;2022-08-25T01:16:34;21.30;99.90
37460;DHT22;23318;50.966;5.284;2022-08-25T01:19:01;21.30;99.90
37460;DHT22;23318;50.966;5.284;2022-08-25T01:21:29;21.30;99.90
37460;DHT22;23318;50.966;5.284;2022-08-25T01:23:56;21.20;99.90
37460;DHT22;23318;50.966;5.284;2022-08-25T01:26:25;21.10;99.90
37460;DHT22;23318;50.966;5.284;2022-08-25T01:28:52;21.00;99.90
37460;DHT22;23318;50.966;5.284;2022-08-25T01:31:38;21.00;99.90
37460;DHT22;23318;50.966;5.284;2022-08-25T01:34:05;21.00;99.90
37460;DHT22;23318;50.966;5.284;2022-08-25T01:36:32;20.90;99.90
37460;DHT22;23318;50.966;5.284;2022-08-25T01:38:59;20.90;99.90
37460;DHT22;23318;50.966;5.284;2022-08-25T01:44:08;20.80;99.90
37460;DHT22;23318;50.966;5.284;2022-08-25T01:46:34;20.80;99.90
37460;DHT22;23318;50.966;5.284;2022-08-25T01:49:03;20.80;99.90
37460;DHT22;23318;50.966;5.284;2022-08-25T01:51:36;20.70;99.90
37460;DHT22;23318;50.966;5.284;2022-08-25T01:54:03;20.60;99.90
37460;DHT22;23318;50.966;5.284;2022-08-25T01:56:28;20.60;99.90
37460;DHT22;23318;50.966;5.284;2022-08-25T01:58:56;20.50;99.90
37460;DHT22;23318;50.966;5.284;2022-08-25T02:01:23;20.50;99.90
37460;DHT22;23318;50.966;5.284;2022-08-25T02:03:51;20.50;99.90
37460;DHT22;23318;50.966;5.284;2022-08-25T02:06:21;20.40;99.90
37460;DHT22;23318;50.966;5.284;2022-08-25T02:08:55;20.40;99.90
37460;DHT22;23318;50.966;5.284;2022-08-25T02:11:22;20.40;99.90
37460;DHT22;23318;50.966;5.284;2022-08-25T02:13:49;20.40;99.90
37460;DHT22;23318;50.966;5.284;2022-08-25T02:16:19;20.40;99.90
37460;DHT22;23318;50.966;5.284;2022-08-25T02:18:47;20.40;99.90
37460;DHT22;23318;50.966;5.284;2022-08-25T02:21:13;20.40;99.90
37460;DHT22;23318;50.966;5.284;2022-08-25T02:23:40;20.50;99.90
37460;DHT22;23318;50.966;5.284;2022-08-25T02:26:07;20.40;99.90
37460;DHT22;23318;50.966;5.284;2022-08-25T02:28:33;20.40;99.90
37460;DHT22;23318;50.966;5.284;2022-08-25T02:30:58;20.50;99.90
37460;DHT22;23318;50.966;5.284;2022-08-25T02:33:24;20.50;99.90
37460;DHT22;23318;50.966;5.284;2022-08-25T02:35:50;20.60;99.90
37460;DHT22;23318;50.966;5.284;2022-08-25T02:38:16;20.60;99.90
37460;DHT22;23318;50.966;5.284;2022-08-25T02:40:43;20.60;99.90
37460;DHT22;23318;50.966;5.284;2022-08-25T02:43:09;20.60;99.90
37460;DHT22;23318;50.966;5.284;2022-08-25T02:45:35;20.40;99.90
37460;DHT22;23318;50.966;5.284;2022-08-25T02:48:01;20.50;99.90
37460;DHT22;23318;50.966;5.284;2022-08-25T02:50:27;20.50;99.90
37460;DHT22;23318;50.966;5.284;2022-08-25T02:52:53;20.70;99.90
37460;DHT22;23318;50.966;5.284;2022-08-25T02:55:19;20.70;99.90
37460;DHT22;23318;50.966;5.284;2022-08-25T02:57:45;20.70;99.90
37460;DHT22;23318;50.966;5.284;2022-08-25T03:00:13;20.60;99.90
37460;DHT22;23318;50.966;5.284;2022-08-25T03:02:40;20.60;99.90
37460;DHT22;23318;50.966;5.284;2022-08-25T03:05:07;20.60;99.90
37460;DHT22;23318;50.966;5.284;2022-08-25T03:07:35;20.70;99.90
37460;DHT22;23318;50.966;5.284;2022-08-25T03:10:06;20.50;99.90
37460;DHT22;23318;50.966;5.284;2022-08-25T03:12:32;20.50;99.90
37460;DHT22;23318;50.966;5.284;2022-08-25T03:14:58;20.60;99.90
37460;DHT22;23318;50.966;5.284;2022-08-25T03:17:23;20.60;99.90
37460;DHT22;23318;50.966;5.284;2022-08-25T03:19:49;20.70;99.90
37460;DHT22;23318;50.966;5.284;2022-08-25T03:22:15;20.70;99.90
37460;DHT22;23318;50.966;5.284;2022-08-25T03:24:40;20.70;99.90
37460;DHT22;23318;50.966;5.284;2022-08-25T03:27:06;20.70;99.90
37460;DHT22;23318;50.966;5.284;2022-08-25T03:29:32;20.70;99.90
37460;DHT22;23318;50.966;5.284;2022-08-25T03:31:59;20.70;99.90
37460;DHT22;23318;50.966;5.284;2022-08-25T03:34:28;20.80;99.90
37460;DHT22;23318;50.966;5.284;2022-08-25T03:36:54;20.70;99.90
37460;DHT22;23318;50.966;5.284;2022-08-25T03:39:22;20.70;99.90
37460;DHT22;23318;50.966;5.284;2022-08-25T03:41:49;20.70;99.90
37460;DHT22;23318;50.966;5.284;2022-08-25T03:44:17;20.70;99.90
37460;DHT22;23318;50.966;5.284;2022-08-25T03:46:46;20.70;99.90
37460;DHT22;23318;50.966;5.284;2022-08-25T03:49:21;20.50;99.90
37460;DHT22;23318;50.966;5.284;2022-08-25T03:51:49;20.50;99.90
37460;DHT22;23318;50.966;5.284;2022-08-25T03:54:18;20.40;99.90
37460;DHT22;23318;50.966;5.284;2022-08-25T03:56:45;20.30;99.90
37460;DHT22;23318;50.966;5.284;2022-08-25T03:59:11;20.20;99.90
37460;DHT22;23318;50.966;5.284;2022-08-25T04:01:39;20.20;99.90
37460;DHT22;23318;50.966;5.284;2022-08-25T04:04:07;20.20;99.90
37460;DHT22;23318;50.966;5.284;2022-08-25T04:06:34;20.10;99.90
37460;DHT22;23318;50.966;5.284;2022-08-25T04:08:59;20.10;99.90
37460;DHT22;23318;50.966;5.284;2022-08-25T04:11:26;20.10;99.90
37460;DHT22;23318;50.966;5.284;2022-08-25T04:13:55;20.20;99.90
37460;DHT22;23318;50.966;5.284;2022-08-25T04:16:25;20.10;99.90
37460;DHT22;23318;50.966;5.284;2022-08-25T04:18:53;20.20;99.90
37460;DHT22;23318;50.966;5.284;2022-08-25T04:21:19;20.20;99.90
37460;DHT22;23318;50.966;5.284;2022-08-25T04:23:47;20.20;99.90
37460;DHT22;23318;50.966;5.284;2022-08-25T04:26:22;19.90;99.90
37460;DHT22;23318;50.966;5.284;2022-08-25T04:28:48;19.80;99.90
37460;DHT22;23318;50.966;5.284;2022-08-25T04:31:14;20.10;99.90
37460;DHT22;23318;50.966;5.284;2022-08-25T04:33:40;20.20;99.90
37460;DHT22;23318;50.966;5.284;2022-08-25T04:36:08;20.30;99.90
37460;DHT22;23318;50.966;5.284;2022-08-25T04:38:36;20.30;99.90
37460;DHT22;23318;50.966;5.284;2022-08-25T04:41:03;20.30;99.90
37460;DHT22;23318;50.966;5.284;2022-08-25T04:43:30;20.30;99.90
37460;DHT22;23318;50.966;5.284;2022-08-25T04:45:56;20.20;99.90
37460;DHT22;23318;50.966;5.284;2022-08-25T04:48:22;20.20;99.90
37460;DHT22;23318;50.966;5.284;2022-08-25T04:50:48;20.20;99.90
37460;DHT22;23318;50.966;5.284;2022-08-25T04:53:15;20.20;99.90
37460;DHT22;23318;50.966;5.284;2022-08-25T04:55:42;20.20;99.90
37460;DHT22;23318;50.966;5.284;2022-08-25T04:58:08;20.20;99.90
37460;DHT22;23318;50.966;5.284;2022-08-25T05:00:35;20.20;99.90
37460;DHT22;23318;50.966;5.284;2022-08-25T05:03:01;20.30;99.90
37460;DHT22;23318;50.966;5.284;2022-08-25T05:05:27;20.30;99.90
37460;DHT22;23318;50.966;5.284;2022-08-25T05:07:52;20.30;99.90
37460;DHT22;23318;50.966;5.284;2022-08-25T05:10:19;20.30;99.90
37460;DHT22;23318;50.966;5.284;2022-08-25T05:12:44;20.20;99.90
37460;DHT22;23318;50.966;5.284;2022-08-25T05:15:10;20.10;99.90
37460;DHT22;23318;50.966;5.284;2022-08-25T05:17:55;20.10;99.90
37460;DHT22;23318;50.966;5.284;2022-08-25T05:20:22;20.10;99.90
37460;DHT22;23318;50.966;5.284;2022-08-25T05:22:48;20.10;99.90
37460;DHT22;23318;50.966;5.284;2022-08-25T05:25:14;20.10;99.90
37460;DHT22;23318;50.966;5.284;2022-08-25T05:27:41;20.10;99.90
37460;DHT22;23318;50.966;5.284;2022-08-25T05:30:08;20.20;99.90
37460;DHT22;23318;50.966;5.284;2022-08-25T05:32:34;20.20;99.90
37460;DHT22;23318;50.966;5.284;2022-08-25T05:35:00;20.30;99.90
37460;DHT22;23318;50.966;5.284;2022-08-25T05:37:26;20.30;99.90
37460;DHT22;23318;50.966;5.284;2022-08-25T05:39:51;20.40;99.90
37460;DHT22;23318;50.966;5.284;2022-08-25T05:42:17;20.50;99.90
37460;DHT22;23318;50.966;5.284;2022-08-25T05:44:42;20.60;99.90
37460;DHT22;23318;50.966;5.284;2022-08-25T05:47:08;20.70;99.90
37460;DHT22;23318;50.966;5.284;2022-08-25T05:49:34;20.80;99.90
37460;DHT22;23318;50.966;5.284;2022-08-25T05:51:59;20.90;99.90
37460;DHT22;23318;50.966;5.284;2022-08-25T05:54:25;20.90;99.90
37460;DHT22;23318;50.966;5.284;2022-08-25T05:56:51;21.10;99.90
37460;DHT22;23318;50.966;5.284;2022-08-25T05:59:16;21.20;99.90
37460;DHT22;23318;50.966;5.284;2022-08-25T06:01:42;21.30;99.90
37460;DHT22;23318;50.966;5.284;2022-08-25T06:04:26;21.50;99.90
37460;DHT22;23318;50.966;5.284;2022-08-25T06:06:52;21.50;99.90
37460;DHT22;23318;50.966;5.284;2022-08-25T06:09:20;21.60;99.90
37460;DHT22;23318;50.966;5.284;2022-08-25T06:11:46;21.80;99.90
37460;DHT22;23318;50.966;5.284;2022-08-25T06:14:13;21.90;99.90
37460;DHT22;23318;50.966;5.284;2022-08-25T06:16:39;22.00;99.90
37460;DHT22;23318;50.966;5.284;2022-08-25T06:19:07;22.30;99.90
37460;DHT22;23318;50.966;5.284;2022-08-25T06:21:32;22.40;99.90
37460;DHT22;23318;50.966;5.284;2022-08-25T06:23:58;22.40;99.90
37460;DHT22;23318;50.966;5.284;2022-08-25T06:26:24;22.40;99.90
37460;DHT22;23318;50.966;5.284;2022-08-25T06:28:51;22.50;99.90
37460;DHT22;23318;50.966;5.284;2022-08-25T06:31:18;22.70;99.90
37460;DHT22;23318;50.966;5.284;2022-08-25T06:33:44;23.00;99.90
37460;DHT22;23318;50.966;5.284;2022-08-25T06:36:11;23.30;99.90
37460;DHT22;23318;50.966;5.284;2022-08-25T06:38:36;23.40;99.90
37460;DHT22;23318;50.966;5.284;2022-08-25T06:41:04;23.30;99.90
37460;DHT22;23318;50.966;5.284;2022-08-25T06:43:31;23.30;99.90
37460;DHT22;23318;50.966;5.284;2022-08-25T06:45:58;23.30;99.90
37460;DHT22;23318;50.966;5.284;2022-08-25T06:48:31;23.50;99.90
37460;DHT22;23318;50.966;5.284;2022-08-25T06:50:58;23.60;99.90
37460;DHT22;23318;50.966;5.284;2022-08-25T06:53:24;24.10;99.90
37460;DHT22;23318;50.966;5.284;2022-08-25T06:55:57;24.40;99.90
37460;DHT22;23318;50.966;5.284;2022-08-25T06:58:23;24.60;99.90
37460;DHT22;23318;50.966;5.284;2022-08-25T07:00:49;24.70;99.90
37460;DHT22;23318;50.966;5.284;2022-08-25T07:03:15;24.70;99.90
37460;DHT22;23318;50.966;5.284;2022-08-25T07:05:40;24.90;99.90
37460;DHT22;23318;50.966;5.284;2022-08-25T07:08:06;24.90;99.90
37460;DHT22;23318;50.966;5.284;2022-08-25T07:10:32;25.40;99.90
37460;DHT22;23318;50.966;5.284;2022-08-25T07:12:57;25.80;99.80
37460;DHT22;23318;50.966;5.284;2022-08-25T07:15:23;26.00;99.00
37460;DHT22;23318;50.966;5.284;2022-08-25T07:17:49;26.50;98.70
37460;DHT22;23318;50.966;5.284;2022-08-25T07:20:16;26.70;98.10
37460;DHT22;23318;50.966;5.284;2022-08-25T07:22:41;26.90;97.70
37460;DHT22;23318;50.966;5.284;2022-08-25T07:25:08;27.00;97.10
37460;DHT22;23318;50.966;5.284;2022-08-25T07:27:35;27.20;97.00
37460;DHT22;23318;50.966;5.284;2022-08-25T07:30:02;27.40;96.30
37460;DHT22;23318;50.966;5.284;2022-08-25T07:32:27;27.20;96.40
37460;DHT22;23318;50.966;5.284;2022-08-25T07:34:53;27.60;95.90
37460;DHT22;23318;50.966;5.284;2022-08-25T07:37:38;27.60;96.00
37460;DHT22;23318;50.966;5.284;2022-08-25T07:40:05;27.70;95.60
37460;DHT22;23318;50.966;5.284;2022-08-25T07:42:31;27.80;94.90
37460;DHT22;23318;50.966;5.284;2022-08-25T07:44:57;27.90;95.60
37460;DHT22;23318;50.966;5.284;2022-08-25T07:47:22;28.10;95.30
37460;DHT22;23318;50.966;5.284;2022-08-25T07:49:48;28.00;95.20
37460;DHT22;23318;50.966;5.284;2022-08-25T07:52:14;28.00;95.00
37460;DHT22;23318;50.966;5.284;2022-08-25T07:54:40;28.30;94.80
37460;DHT22;23318;50.966;5.284;2022-08-25T07:57:07;28.50;94.80
37460;DHT22;23318;50.966;5.284;2022-08-25T07:59:33;28.50;95.20
37460;DHT22;23318;50.966;5.284;2022-08-25T08:01:59;28.50;94.20
37460;DHT22;23318;50.966;5.284;2022-08-25T08:04:25;28.20;95.60
37460;DHT22;23318;50.966;5.284;2022-08-25T08:06:50;28.00;95.40
37460;DHT22;23318;50.966;5.284;2022-08-25T08:09:16;28.20;95.30
37460;DHT22;23318;50.966;5.284;2022-08-25T08:11:42;28.40;96.90
37460;DHT22;23318;50.966;5.284;2022-08-25T08:14:09;28.60;95.20
37460;DHT22;23318;50.966;5.284;2022-08-25T08:16:36;28.90;95.20
37460;DHT22;23318;50.966;5.284;2022-08-25T08:19:03;29.10;94.30
37460;DHT22;23318;50.966;5.284;2022-08-25T08:21:31;29.20;95.00
37460;DHT22;23318;50.966;5.284;2022-08-25T08:23:58;29.30;94.60
37460;DHT22;23318;50.966;5.284;2022-08-25T08:26:25;29.50;93.60
37460;DHT22;23318;50.966;5.284;2022-08-25T08:28:53;29.40;94.10
37460;DHT22;23318;50.966;5.284;2022-08-25T08:31:20;29.50;93.50
37460;DHT22;23318;50.966;5.284;2022-08-25T08:33:48;29.50;93.40
37460;DHT22;23318;50.966;5.284;2022-08-25T08:36:14;29.70;93.80
37460;DHT22;23318;50.966;5.284;2022-08-25T08:38:42;29.90;92.80
37460;DHT22;23318;50.966;5.284;2022-08-25T08:52:34;30.20;92.20
37460;DHT22;23318;50.966;5.284;2022-08-25T08:55:02;30.20;92.40
37460;DHT22;23318;50.966;5.284;2022-08-25T08:57:31;30.40;92.30
37460;DHT22;23318;50.966;5.284;2022-08-25T09:00:01;30.60;92.10
37460;DHT22;23318;50.966;5.284;2022-08-25T09:03:04;30.30;92.80
37460;DHT22;23318;50.966;5.284;2022-08-25T09:05:34;30.40;93.50
37460;DHT22;23318;50.966;5.284;2022-08-25T09:08:06;30.40;92.90
37460;DHT22;23318;50.966;5.284;2022-08-25T09:22:31;30.80;92.20
37460;DHT22;23318;50.966;5.284;2022-08-25T09:25:20;30.90;91.20
37460;DHT22;23318;50.966;5.284;2022-08-25T09:28:12;31.30;91.40
37460;DHT22;23318;50.966;5.284;2022-08-25T09:30:53;31.50;91.20
37460;DHT22;23318;50.966;5.284;2022-08-25T09:33:24;31.50;90.90
37460;DHT22;23318;50.966;5.284;2022-08-25T09:35:53;31.70;91.10
37460;DHT22;23318;50.966;5.284;2022-08-25T09:38:19;31.00;90.50
37460;DHT22;23318;50.966;5.284;2022-08-25T09:40:48;30.90;91.10
37460;DHT22;23318;50.966;5.284;2022-08-25T09:43:22;31.30;90.20
37460;DHT22;23318;50.966;5.284;2022-08-25T09:46:10;31.70;90.50
37460;DHT22;23318;50.966;5.284;2022-08-25T09:48:51;32.10;90.00
37460;DHT22;23318;50.966;5.284;2022-08-25T09:51:25;32.20;89.80
37460;DHT22;23318;50.966;5.284;2022-08-25T09:54:02;32.20;89.70
37460;DHT22;23318;50.966;5.284;2022-08-25T09:56:31;32.30;86.20
37460;DHT22;23318;50.966;5.284;2022-08-25T09:59:36;32.30;86.40
37460;DHT22;23318;50.966;5.284;2022-08-25T10:04:42;32.20;86.00
37460;DHT22;23318;50.966;5.284;2022-08-25T10:07:27;32.20;86.70
37460;DHT22;23318;50.966;5.284;2022-08-25T10:09:59;32.50;87.20
37460;DHT22;23318;50.966;5.284;2022-08-25T10:12:41;32.80;86.40
37460;DHT22;23318;50.966;5.284;2022-08-25T10:15:31;32.80;86.20
37460;DHT22;23318;50.966;5.284;2022-08-25T10:21:13;33.10;83.70
37460;DHT22;23318;50.966;5.284;2022-08-25T10:23:46;32.90;83.30
37460;DHT22;23318;50.966;5.284;2022-08-25T10:37:19;32.90;80.40
37460;DHT22;23318;50.966;5.284;2022-08-25T10:40:09;32.90;79.70
37460;DHT22;23318;50.966;5.284;2022-08-25T10:45:25;34.40;78.40
37460;DHT22;23318;50.966;5.284;2022-08-25T10:54:13;38.70;73.40
37460;DHT22;23318;50.966;5.284;2022-08-25T10:56:49;38.30;70.00
37460;DHT22;23318;50.966;5.284;2022-08-25T11:05:06;38.80;65.20
37460;DHT22;23318;50.966;5.284;2022-08-25T11:07:47;39.20;64.50
37460;DHT22;23318;50.966;5.284;2022-08-25T11:12:50;39.20;63.90
37460;DHT22;23318;50.966;5.284;2022-08-25T11:15:32;41.80;62.50
37460;DHT22;23318;50.966;5.284;2022-08-25T11:18:07;42.00;60.20
37460;DHT22;23318;50.966;5.284;2022-08-25T11:20:53;42.70;59.00
37460;DHT22;23318;50.966;5.284;2022-08-25T11:25:56;43.10;55.70
37460;DHT22;23318;50.966;5.284;2022-08-25T11:31:08;40.00;56.20
37460;DHT22;23318;50.966;5.284;2022-08-25T11:33:35;39.80;56.60
37460;DHT22;23318;50.966;5.284;2022-08-25T11:36:33;42.30;56.40
37460;DHT22;23318;50.966;5.284;2022-08-25T11:39:59;42.20;54.40
37460;DHT22;23318;50.966;5.284;2022-08-25T11:55:50;41.00;55.30
37460;DHT22;23318;50.966;5.284;2022-08-25T11:58:29;41.10;54.00
37460;DHT22;23318;50.966;5.284;2022-08-25T12:00:57;42.50;53.10
37460;DHT22;23318;50.966;5.284;2022-08-25T12:06:22;44.60;50.60
37460;DHT22;23318;50.966;5.284;2022-08-25T12:21:56;44.70;47.70
37460;DHT22;23318;50.966;5.284;2022-08-25T12:27:21;42.10;49.80
37460;DHT22;23318;50.966;5.284;2022-08-25T12:37:55;44.50;48.60
37460;DHT22;23318;50.966;5.284;2022-08-25T12:40:30;42.70;48.00
37460;DHT22;23318;50.966;5.284;2022-08-25T12:43:07;39.80;49.40
37460;DHT22;23318;50.966;5.284;2022-08-25T12:57:00;37.30;53.10
37460;DHT22;23318;50.966;5.284;2022-08-25T12:59:40;37.60;52.50
37460;DHT22;23318;50.966;5.284;2022-08-25T13:10:30;43.10;48.90
37460;DHT22;23318;50.966;5.284;2022-08-25T13:13:09;43.20;48.90
37460;DHT22;23318;50.966;5.284;2022-08-25T13:15:47;41.70;49.40
37460;DHT22;23318;50.966;5.284;2022-08-25T13:18:25;40.30;50.30
37460;DHT22;23318;50.966;5.284;2022-08-25T13:23:40;38.00;51.50
37460;DHT22;23318;50.966;5.284;2022-08-25T13:26:07;37.70;52.40
37460;DHT22;23318;50.966;5.284;2022-08-25T13:28:37;37.50;51.30
37460;DHT22;23318;50.966;5.284;2022-08-25T13:31:13;38.50;51.50
37460;DHT22;23318;50.966;5.284;2022-08-25T13:33:52;40.70;49.70
37460;DHT22;23318;50.966;5.284;2022-08-25T13:36:18;42.50;48.70
37460;DHT22;23318;50.966;5.284;2022-08-25T13:39:22;43.20;50.10
37460;DHT22;23318;50.966;5.284;2022-08-25T13:41:50;42.20;49.40
37460;DHT22;23318;50.966;5.284;2022-08-25T13:44:18;42.00;49.00
37460;DHT22;23318;50.966;5.284;2022-08-25T13:46:44;43.00;49.60
37460;DHT22;23318;50.966;5.284;2022-08-25T13:49:12;40.90;48.20
37460;DHT22;23318;50.966;5.284;2022-08-25T13:51:39;39.40;49.90
37460;DHT22;23318;50.966;5.284;2022-08-25T13:54:38;40.30;50.00
37460;DHT22;23318;50.966;5.284;2022-08-25T13:57:24;42.80;48.90
37460;DHT22;23318;50.966;5.284;2022-08-25T13:59:53;42.50;49.50
37460;DHT22;23318;50.966;5.284;2022-08-25T14:05:04;36.10;52.20
37460;DHT22;23318;50.966;5.284;2022-08-25T14:07:30;37.20;52.60
37460;DHT22;23318;50.966;5.284;2022-08-25T14:10:29;39.70;51.40
37460;DHT22;23318;50.966;5.284;2022-08-25T14:15:36;37.30;52.60
37460;DHT22;23318;50.966;5.284;2022-08-25T14:18:13;38.30;52.70
37460;DHT22;23318;50.966;5.284;2022-08-25T14:20:46;39.10;52.00
37460;DHT22;23318;50.966;5.284;2022-08-25T14:23:17;40.40;50.80
37460;DHT22;23318;50.966;5.284;2022-08-25T14:25:43;41.30;50.00
37460;DHT22;23318;50.966;5.284;2022-08-25T14:28:15;43.10;50.00
37460;DHT22;23318;50.966;5.284;2022-08-25T14:30:48;44.00;48.70
37460;DHT22;23318;50.966;5.284;2022-08-25T14:33:16;44.10;48.80
37460;DHT22;23318;50.966;5.284;2022-08-25T14:35:45;45.00;48.20
37460;DHT22;23318;50.966;5.284;2022-08-25T14:38:11;44.90;47.70
37460;DHT22;23318;50.966;5.284;2022-08-25T14:40:38;43.70;48.20
37460;DHT22;23318;50.966;5.284;2022-08-25T14:43:05;42.50;47.10
37460;DHT22;23318;50.966;5.284;2022-08-25T14:45:31;42.60;48.50
37460;DHT22;23318;50.966;5.284;2022-08-25T14:48:06;43.40;47.90
37460;DHT22;23318;50.966;5.284;2022-08-25T14:50:32;43.00;47.50
37460;DHT22;23318;50.966;5.284;2022-08-25T14:52:59;43.10;48.20
37460;DHT22;23318;50.966;5.284;2022-08-25T14:55:24;44.20;47.40
37460;DHT22;23318;50.966;5.284;2022-08-25T14:57:50;45.20;46.30
37460;DHT22;23318;50.966;5.284;2022-08-25T15:00:17;44.60;46.40
37460;DHT22;23318;50.966;5.284;2022-08-25T15:02:44;44.90;47.20
37460;DHT22;23318;50.966;5.284;2022-08-25T15:05:11;45.50;47.20
37460;DHT22;23318;50.966;5.284;2022-08-25T15:07:38;45.30;46.90
37460;DHT22;23318;50.966;5.284;2022-08-25T15:10:22;44.50;46.60
37460;DHT22;23318;50.966;5.284;2022-08-25T15:12:48;44.30;46.80
37460;DHT22;23318;50.966;5.284;2022-08-25T15:15:15;43.20;46.70
37460;DHT22;23318;50.966;5.284;2022-08-25T15:17:41;43.30;46.40
37460;DHT22;23318;50.966;5.284;2022-08-25T15:20:09;43.20;46.30
37460;DHT22;23318;50.966;5.284;2022-08-25T15:22:34;43.10;46.90
37460;DHT22;23318;50.966;5.284;2022-08-25T15:25:00;43.20;46.80
37460;DHT22;23318;50.966;5.284;2022-08-25T15:27:26;43.10;46.70
37460;DHT22;23318;50.966;5.284;2022-08-25T15:29:51;42.50;47.00
37460;DHT22;23318;50.966;5.284;2022-08-25T15:32:17;43.70;47.50
37460;DHT22;23318;50.966;5.284;2022-08-25T15:34:43;43.60;47.20
37460;DHT22;23318;50.966;5.284;2022-08-25T15:37:14;44.00;46.10
37460;DHT22;23318;50.966;5.284;2022-08-25T15:39:42;44.80;46.00
37460;DHT22;23318;50.966;5.284;2022-08-25T15:42:09;45.00;45.70
37460;DHT22;23318;50.966;5.284;2022-08-25T15:44:37;44.10;45.70
37460;DHT22;23318;50.966;5.284;2022-08-25T15:47:03;44.40;46.20
37460;DHT22;23318;50.966;5.284;2022-08-25T15:49:29;45.20;45.80
37460;DHT22;23318;50.966;5.284;2022-08-25T15:51:55;45.00;46.00
37460;DHT22;23318;50.966;5.284;2022-08-25T15:54:22;44.80;46.60
37460;DHT22;23318;50.966;5.284;2022-08-25T15:56:48;44.80;46.80
37460;DHT22;23318;50.966;5.284;2022-08-25T15:59:14;45.00;47.00
37460;DHT22;23318;50.966;5.284;2022-08-25T16:01:40;44.80;45.10
37460;DHT22;23318;50.966;5.284;2022-08-25T16:04:06;43.40;46.00
37460;DHT22;23318;50.966;5.284;2022-08-25T16:06:32;42.70;46.70
37460;DHT22;23318;50.966;5.284;2022-08-25T16:08:59;41.60;46.80
37460;DHT22;23318;50.966;5.284;2022-08-25T16:11:29;41.10;47.80
37460;DHT22;23318;50.966;5.284;2022-08-25T16:13:55;40.40;47.90
37460;DHT22;23318;50.966;5.284;2022-08-25T16:16:23;40.80;48.40
37460;DHT22;23318;50.966;5.284;2022-08-25T16:18:50;40.50;47.80
37460;DHT22;23318;50.966;5.284;2022-08-25T16:21:19;40.10;48.30
37460;DHT22;23318;50.966;5.284;2022-08-25T16:23:46;39.50;48.60
37460;DHT22;23318;50.966;5.284;2022-08-25T16:26:11;38.70;49.20
37460;DHT22;23318;50.966;5.284;2022-08-25T16:28:39;37.90;50.00
37460;DHT22;23318;50.966;5.284;2022-08-25T16:31:08;37.60;50.80
37460;DHT22;23318;50.966;5.284;2022-08-25T16:33:34;37.20;51.50
37460;DHT22;23318;50.966;5.284;2022-08-25T16:36:18;37.30;52.00
37460;DHT22;23318;50.966;5.284;2022-08-25T16:38:45;37.40;51.50
37460;DHT22;23318;50.966;5.284;2022-08-25T16:41:17;37.50;53.50
37460;DHT22;23318;50.966;5.284;2022-08-25T16:43:44;37.00;51.50
37460;DHT22;23318;50.966;5.284;2022-08-25T16:46:12;36.80;52.10
37460;DHT22;23318;50.966;5.284;2022-08-25T16:48:39;36.50;51.80
37460;DHT22;23318;50.966;5.284;2022-08-25T16:51:14;36.30;51.90
37460;DHT22;23318;50.966;5.284;2022-08-25T16:53:40;36.10;52.50
37460;DHT22;23318;50.966;5.284;2022-08-25T16:56:25;35.70;53.00
37460;DHT22;23318;50.966;5.284;2022-08-25T16:58:53;35.40;53.30
37460;DHT22;23318;50.966;5.284;2022-08-25T17:01:20;34.90;53.90
37460;DHT22;23318;50.966;5.284;2022-08-25T17:03:47;34.70;54.50
37460;DHT22;23318;50.966;5.284;2022-08-25T17:06:12;34.40;54.70
37460;DHT22;23318;50.966;5.284;2022-08-25T17:08:39;34.30;54.90
37460;DHT22;23318;50.966;5.284;2022-08-25T17:11:20;34.20;55.50
37460;DHT22;23318;50.966;5.284;2022-08-25T17:13:48;34.10;55.70
37460;DHT22;23318;50.966;5.284;2022-08-25T17:16:15;34.10;56.30
37460;DHT22;23318;50.966;5.284;2022-08-25T17:18:41;34.10;56.60
37460;DHT22;23318;50.966;5.284;2022-08-25T17:21:15;34.10;57.30
37460;DHT22;23318;50.966;5.284;2022-08-25T17:23:42;34.10;57.10
37460;DHT22;23318;50.966;5.284;2022-08-25T17:26:13;34.10;57.50
37460;DHT22;23318;50.966;5.284;2022-08-25T17:28:40;34.20;58.20
37460;DHT22;23318;50.966;5.284;2022-08-25T17:31:06;34.40;57.70
37460;DHT22;23318;50.966;5.284;2022-08-25T17:33:32;34.50;58.80
37460;DHT22;23318;50.966;5.284;2022-08-25T17:35:58;34.60;59.90
37460;DHT22;23318;50.966;5.284;2022-08-25T17:38:26;34.60;60.50
37460;DHT22;23318;50.966;5.284;2022-08-25T17:40:53;34.70;59.90
37460;DHT22;23318;50.966;5.284;2022-08-25T17:43:20;34.70;60.50
37460;DHT22;23318;50.966;5.284;2022-08-25T17:45:46;34.60;60.60
37460;DHT22;23318;50.966;5.284;2022-08-25T17:48:13;34.50;61.10
37460;DHT22;23318;50.966;5.284;2022-08-25T17:50:39;34.20;61.50
37460;DHT22;23318;50.966;5.284;2022-08-25T17:53:07;33.90;62.30
37460;DHT22;23318;50.966;5.284;2022-08-25T17:55:33;33.40;63.60
37460;DHT22;23318;50.966;5.284;2022-08-25T17:57:59;32.90;64.00